Flight Track Log - Related Links

Times and Time Zones

All times are in EDT time to prevent confusion due to time zone crossing. See the N589H flight status page for this flight to view local times or setup timezone preferences in your user account.

Time Position Orientation Groundspeed Altitude Reporting Facility
EDT Latitude Longitude Course Direction KTS MPH feet Rate Location/Type
Sat 01:53:45 AM 35.1922 -80.9347 205° Southwest 166 191 1,100  Level Atlanta Center
Sat 01:54:27 AM 35.1589 -80.9331 178° South 172 198 2,400 1,643 Climbing Atlanta Center
Sat 01:55:09 AM 35.1272 -80.9331 180° South 178 205 3,400 1,574 Climbing Atlanta Center
Sat 01:55:28 AM 35.1083 -80.9342 183° South 189 217 4,000 1,967 Climbing Atlanta Center
Sat 01:56:10 AM 35.0747 -80.9500 201° Southwest 191 220 5,400 2,400 Climbing Atlanta Center
Sat 01:56:28 AM 35.0539 -80.9578 197° South 194 223 6,400 2,100 Climbing Atlanta Center
Sat 01:57:10 AM 35.0228 -80.9694 197° South 195 224 7,500 1,967 Climbing Atlanta Center
Sat 01:57:29 AM 34.9997 -80.9764 194° South 197 227 8,400 1,900 Climbing Atlanta Center
Sat 01:58:10 AM 34.9703 -80.9878 198° South 195 224 9,400 1,672 Climbing Atlanta Center
Sat 01:58:30 AM 34.9456 -80.9975 198° South 207 238 10,100 1,800 Climbing Atlanta Center
Sat 01:59:00 AM 33.7463 -80.8038 205° Southwest  Level FlightAware Approximate
Sat 01:59:10 AM 34.9128 -81.0092 196° South 209 241 11,200  Level Atlanta Center
Sat 02:00:11 AM 34.8528 -81.0308 197° South 219 252 13,000 1,587 Climbing Atlanta Center
Sat 02:01:11 AM 34.7917 -81.0500 194° South 224 258 14,400 1,400 Climbing Atlanta Center
Sat 02:02:11 AM 34.7275 -81.0761 198° South 239 275 15,800 1,350 Climbing Atlanta Center
Sat 02:03:11 AM 34.6628 -81.1036 199° South 246 283 17,100 1,150 Climbing Atlanta Center
Sat 02:04:11 AM 34.6050 -81.1519 215° Southwest 250 288 18,100 1,041 Climbing Atlanta Center
Sat 02:05:12 AM 34.5617 -81.2211 233° Southwest 255 293 19,200 1,240 Climbing Atlanta Center
Sat 02:06:12 AM 34.4939 -81.2575 204° Southwest 261 300 20,600 1,350 Climbing Atlanta Center
Sat 02:07:12 AM 34.4258 -81.2839 198° South 259 298 21,900 1,350 Climbing Atlanta Center
Sat 02:08:12 AM 34.3461 -81.3003 190° South 254 292 23,300 1,150 Climbing Atlanta Center
Sat 02:09:12 AM 34.2725 -81.3031 182° South 260 299 24,200 942 Climbing Atlanta Center
Sat 02:10:13 AM 34.1903 -81.2875 171° South 294 338 25,200 893 Climbing Atlanta Center
Sat 02:11:13 AM 34.1144 -81.3119 195° South 283 326 26,000 400 Climbing Atlanta Center
Sat 02:12:13 AM 34.0306 -81.3300 190° South 301 346 26,000  Level Atlanta Center
Sat 02:13:34 AM 33.9106 -81.3611 192° South 317 365 26,000  Level Jacksonville Center
Sat 02:14:34 AM 33.8211 -81.3853 193° South 328 377 26,000  Level Jacksonville Center
Sat 02:15:34 AM 33.7294 -81.4067 191° South 333 383 26,000  Level Jacksonville Center
Sat 02:16:34 AM 33.6381 -81.4256 190° South 333 383 26,000  Level Jacksonville Center
Sat 02:17:34 AM 33.5506 -81.4469 192° South 333 383 26,000  Level Jacksonville Center
Sat 02:18:34 AM 33.4569 -81.4686 191° South 333 383 26,000  Level Jacksonville Center
Sat 02:19:34 AM 33.3675 -81.4897 191° South 333 383 26,000  Level Jacksonville Center
Sat 02:20:34 AM 33.2758 -81.5111 191° South 338 389 26,000  Level Jacksonville Center
Sat 02:21:34 AM 33.1925 -81.5322 192° South 338 389 26,000  Level Jacksonville Center
Sat 02:22:34 AM 33.0989 -81.5511 190° South 338 389 26,000  Level Jacksonville Center
Sat 02:23:34 AM 33.0092 -81.5722 191° South 338 389 26,000  Level Jacksonville Center
Sat 02:24:34 AM 32.9072 -81.5986 192° South 338 389 26,000  Level Jacksonville Center
Sat 02:25:34 AM 32.8178 -81.6172 190° South 338 389 26,000  Level Jacksonville Center
Sat 02:26:34 AM 32.7261 -81.6381 191° South 338 389 26,000  Level Jacksonville Center
Sat 02:27:34 AM 32.6469 -81.6564 191° South 327 376 26,000  Level Jacksonville Center
Sat 02:28:34 AM 32.5511 -81.6800 192° South 327 376 26,000  Level Jacksonville Center
Sat 02:29:34 AM 32.4700 -81.6983 191° South 333 383 26,000  Level Jacksonville Center
Sat 02:30:34 AM 32.3719 -81.7217 191° South 333 383 26,000  Level Jacksonville Center
Sat 02:31:34 AM 32.2844 -81.7400 190° South 333 383 26,000  Level Jacksonville Center
Sat 02:32:34 AM 32.2033 -81.7583 191° South 333 383 26,000  Level Jacksonville Center
Sat 02:33:34 AM 32.1053 -81.7814 191° South 333 383 26,000  Level Jacksonville Center
Sat 02:34:34 AM 32.0219 -81.7997 191° South 333 383 26,000  Level Jacksonville Center
Sat 02:35:34 AM 31.9239 -81.8206 190° South 333 383 26,000  Level Jacksonville Center
Sat 02:36:34 AM 31.8344 -81.8411 191° South 333 383 26,000  Level Jacksonville Center
Sat 02:37:34 AM 31.7531 -81.8592 191° South 333 383 26,000  Level Jacksonville Center
Sat 02:38:34 AM 31.6572 -81.8797 190° South 332 382 26,000  Level Jacksonville Center
Sat 02:39:34 AM 31.5758 -81.9000 192° South 332 382 26,000  Level Jacksonville Center
Sat 02:40:34 AM 31.4758 -81.9231 191° South 337 388 26,000  Level Jacksonville Center
Sat 02:41:34 AM 31.3883 -81.9433 191° South 332 382 26,000  Level Jacksonville Center
Sat 02:42:34 AM 31.2986 -81.9614 190° South 337 388 26,000  Level Jacksonville Center
Sat 02:43:34 AM 31.2092 -81.9842 192° South 330 380 26,000  Level Jacksonville Center
Sat 02:44:34 AM 31.1217 -82.0019 190° South 325 374 26,000  Level Jacksonville Center
Sat 02:45:34 AM 31.0339 -82.0222 191° South 325 374 26,000  Level Jacksonville Center
Sat 02:46:34 AM 30.9486 -82.0400 190° South 325 374 26,000  Level Jacksonville Center
Sat 02:47:34 AM 30.8608 -82.0600 191° South 325 374 26,000  Level Jacksonville Center
Sat 02:48:34 AM 30.7756 -82.0800 191° South 325 374 26,000  Level Jacksonville Center
Sat 02:49:34 AM 30.6878 -82.0978 190° South 325 374 26,000  Level Jacksonville Center
Sat 02:50:34 AM 30.6086 -82.1131 189° South 320 368 26,000  Level Jacksonville Center
Sat 02:51:34 AM 30.5128 -82.1331 190° South 315 362 26,000  Level Jacksonville Center
Sat 02:52:34 AM 30.4253 -82.1531 191° South 315 362 26,000  Level Jacksonville Center
Sat 02:53:34 AM 30.3375 -82.1728 191° South 320 368 26,000  Level Jacksonville Center
Sat 02:54:34 AM 30.2478 -82.1906 190° South 327 376 26,000  Level Jacksonville Center
Sat 02:55:34 AM 30.1583 -82.2078 189° South 327 376 26,000 -50 Level Jacksonville Center
Sat 02:56:34 AM 30.0706 -82.2372 196° South 329 379 25,900  Descending Jacksonville Center
Sat 02:57:34 AM 29.9914 -82.2594 194° South 329 379 26,000 50 Climbing Jacksonville Center
Sat 02:58:34 AM 29.9039 -82.2839 194° South 329 379 26,000  Level Jacksonville Center
Sat 02:59:34 AM 29.8164 -82.3108 195° South 329 379 26,000  Level Jacksonville Center
Sat 03:00:34 AM 29.7161 -82.3331 191° South 329 379 26,000  Level Jacksonville Center
Sat 03:01:34 AM 29.6286 -82.3575 194° South 334 384 26,000 -50 Level Jacksonville Center
Sat 03:02:34 AM 29.5389 -82.3817 193° South 334 384 25,900 -600 Descending Jacksonville Center
Sat 03:03:34 AM 29.4575 -82.4036 193° South 334 384 24,800 -1,300 Descending Jacksonville Center
Sat 03:04:34 AM 29.3639 -82.4281 193° South 340 391 23,300 -1,500 Descending Jacksonville Center
Sat 03:05:34 AM 29.2742 -82.4522 193° South 340 391 21,800 -1,500 Descending Jacksonville Center
Sat 03:06:34 AM 29.1844 -82.4764 193° South 334 384 20,300 -1,500 Descending Jacksonville Center
Sat 03:07:34 AM 29.0989 -82.5028 195° South 334 384 18,800 -1,450 Descending Jacksonville Center
Sat 03:08:34 AM 29.0156 -82.5269 194° South 328 377 17,400 -1,600 Descending Jacksonville Center
Sat 03:09:34 AM 28.9319 -82.5439 190° South 316 364 15,600 -2,090 Descending Jacksonville Center
Sat 03:11:32 AM 28.7667 -82.5833 192° South 270 311 11,200 -1,551 Descending Tampa TRACON
Sat 03:12:32 AM 28.7000 -82.6000 192° South 255 293 11,000 -100 Descending Tampa TRACON
Sat 03:13:32 AM 28.6333 -82.6333 204° Southwest 276 318 11,000 -446 Level Tampa TRACON
Sat 03:14:33 AM 28.5500 -82.6500 190° South 263 303 10,100 -1,041 Descending Tampa TRACON
Sat 03:15:33 AM 28.4833 -82.6667 192° South 256 295 8,900 -1,250 Descending Tampa TRACON
Sat 03:16:33 AM 28.4167 -82.6833 192° South 259 298 7,600 -1,050 Descending Tampa TRACON
Sat 03:17:33 AM 28.3500 -82.7000 192° South 262 302 6,800 -1,050 Descending Tampa TRACON
Sat 03:18:33 AM 28.2833 -82.7167 192° South 247 284 5,500 -1,300 Descending Tampa TRACON
Sat 03:19:33 AM 28.2167 -82.7333 192° South 232 267 4,200 -1,250 Descending Tampa TRACON
Sat 03:20:33 AM 28.1500 -82.7333 180° South 236 272 3,000 -1,200 Descending Tampa TRACON

Login

Don't have an account? Register now (free) for customized features, flight alerts, and more!